Big Bear Station Historical Data
Daily Summary for June 2, 2017 Units:  English    Metric   Both
Next Day »
Daily Weekly Monthly Yearly Custom
  High: Low: Average:
Temperature: 80.4 °F 41.2 °F 59.9 °F
Dew Point: 47.3 °F 34.2 °F 40.4 °F
Humidity: 93% 20% 56%
Wind Speed: 6.3mph 0.0mph 1.9mph
Wind Gust: -999.0mph - -
Wind- - WSW
Pressure: 30.19 in 30.11 in -
Precipitation: 0.00 in    
Historical Graphs
 
 
Tabular Data for June 2, 2017
Time Temperature Dew Point Pressure Wind Wind Speed Wind Gust Humidity Rainfall Rate (Hourly)
00:04 47.3 °F 38.4 °F 30.12 in Calm   -999.0 mph 71% 0 in
00:19 46.9 °F 38.7 °F 30.12 in Calm   -999.0 mph 73% 0 in
00:34 46.6 °F 38.4 °F 30.12 in Calm   -999.0 mph 73% 0 in
00:49 45.9 °F 38.8 °F 30.12 in Calm   -999.0 mph 76% 0 in
01:05 45.5 °F 39.4 °F 30.13 in Calm   -999.0 mph 79% 0 in
01:20 45.3 °F 39.8 °F 30.12 in Calm   -999.0 mph 81% 0 in
01:35 45.0 °F 39.8 °F 30.12 in Calm   -999.0 mph 82% 0 in
01:50 44.8 °F 40.3 °F 30.12 in SSE 1.7 mph -999.0 mph 84% 0 in
02:05 44.6 °F 40.1 °F 30.12 in South 1.7 mph -999.0 mph 84% 0 in
02:21 44.2 °F 40.0 °F 30.11 in Calm   -999.0 mph 85% 0 in
02:36 44.1 °F 40.2 °F 30.12 in Calm   -999.0 mph 86% 0 in
02:51 43.7 °F 39.8 °F 30.12 in South 2.2 mph -999.0 mph 86% 0 in
03:06 43.5 °F 39.3 °F 30.12 in South 1.7 mph -999.0 mph 85% 0 in
03:22 43.2 °F 39.6 °F 30.12 in Calm   -999.0 mph 87% 0 in
03:37 43.0 °F 39.7 °F 30.12 in Calm   -999.0 mph 88% 0 in
03:52 42.8 °F 39.5 °F 30.12 in Calm   -999.0 mph 88% 0 in
04:07 42.6 °F 39.3 °F 30.12 in Calm   -999.0 mph 88% 0 in
04:22 42.3 °F 39.0 °F 30.13 in Calm   -999.0 mph 88% 0 in
04:38 42.1 °F 39.4 °F 30.13 in Calm   -999.0 mph 90% 0 in
04:53 41.9 °F 39.5 °F 30.13 in Calm   -999.0 mph 91% 0 in
05:08 41.7 °F 39.3 °F 30.13 in Calm   -999.0 mph 91% 0 in
05:23 41.5 °F 39.3 °F 30.13 in Calm   -999.0 mph 92% 0 in
05:38 41.5 °F 39.6 °F 30.13 in Calm   -999.0 mph 93% 0 in
06:09 41.2 °F 39.1 °F 30.14 in Calm   -999.0 mph 92% 0 in
06:24 41.4 °F 39.0 °F 30.14 in Calm   -999.0 mph 91% 0 in
06:39 41.9 °F 40.0 °F 30.14 in Calm   -999.0 mph 93% 0 in
06:54 42.3 °F 40.4 °F 30.15 in Calm   -999.0 mph 93% 0 in
07:10 43.5 °F 41.0 °F 30.15 in Calm   -999.0 mph 91% 0 in
07:25 43.7 °F 41.5 °F 30.15 in Calm   -999.0 mph 92% 0 in
07:40 45.0 °F 42.8 °F 30.15 in Calm   -999.0 mph 92% 0 in
07:55 46.2 °F 44.3 °F 30.16 in Calm   -999.0 mph 93% 0 in
08:11 48.0 °F 43.4 °F 30.16 in Calm   -999.0 mph 84% 0 in
08:26 50.9 °F 45.0 °F 30.16 in Calm   -999.0 mph 80% 0 in
08:41 53.6 °F 39.2 °F 30.16 in Calm   -999.0 mph 58% 0 in
08:56 57.2 °F 37.1 °F 30.16 in Calm   -999.0 mph 47% 0 in
09:11 60.8 °F 36.9 °F 30.16 in NNW 3.2 mph -999.0 mph 41% 0 in
09:27 63.1 °F 37.1 °F 30.16 in NNW 4.7 mph -999.0 mph 38% 0 in
09:42 64.4 °F 36.9 °F 30.16 in NW 6.3 mph -999.0 mph 36% 0 in
09:57 65.5 °F 37.1 °F 30.16 in NW 5.8 mph -999.0 mph 35% 0 in
10:12 66.6 °F 36.6 °F 30.16 in NW 2.7 mph -999.0 mph 33% 0 in
10:28 67.1 °F 37.0 °F 30.16 in West 4.2 mph -999.0 mph 33% 0 in
10:43 67.5 °F 37.4 °F 30.17 in NW 5.3 mph -999.0 mph 33% 0 in
10:58 68.4 °F 38.2 °F 30.17 in NNW 3.2 mph -999.0 mph 33% 0 in
11:14 69.4 °F 37.5 °F 30.17 in NNW 2.2 mph -999.0 mph 31% 0 in
11:29 70.7 °F 37.7 °F 30.17 in WNW 5.3 mph -999.0 mph 30% 0 in
11:44 72.3 °F 36.4 °F 30.17 in NNW 6.3 mph -999.0 mph 27% 0 in
11:59 73.4 °F 36.4 °F 30.17 in NNW 6.3 mph -999.0 mph 26% 0 in
12:14 74.1 °F 36.0 °F 30.17 in WNW 3.7 mph -999.0 mph 25% 0 in
12:30 75.2 °F 34.9 °F 30.17 in ESE 2.2 mph -999.0 mph 23% 0 in
12:45 75.9 °F 35.4 °F 30.17 in ENE 2.2 mph -999.0 mph 23% 0 in
13:00 77.9 °F 36.0 °F 30.17 in West 3.2 mph -999.0 mph 22% 0 in
13:16 77.4 °F 35.6 °F 30.16 in North 2.7 mph -999.0 mph 22% 0 in
13:31 77.2 °F 35.4 °F 30.16 in North 2.7 mph -999.0 mph 22% 0 in
13:46 77.5 °F 34.5 °F 30.17 in NE 3.7 mph -999.0 mph 21% 0 in
14:02 77.5 °F 35.7 °F 30.16 in North 4.2 mph -999.0 mph 22% 0 in
14:17 76.5 °F 34.8 °F 30.16 in ESE 2.2 mph -999.0 mph 22% 0 in
14:32 78.6 °F 34.2 °F 30.16 in NW 4.2 mph -999.0 mph 20% 0 in
14:47 79.0 °F 35.7 °F 30.16 in WNW 4.7 mph -999.0 mph 21% 0 in
15:02 77.7 °F 34.7 °F 30.16 in SW 1.7 mph -999.0 mph 21% 0 in
15:18 79.5 °F 37.3 °F 30.16 in North 2.7 mph -999.0 mph 22% 0 in
15:33 78.6 °F 35.4 °F 30.15 in NNW 3.2 mph -999.0 mph 21% 0 in
15:48 78.4 °F 35.2 °F 30.15 in NNW 1.7 mph -999.0 mph 21% 0 in
16:03 77.9 °F 44.8 °F 30.15 in WNW 4.2 mph -999.0 mph 31% 0 in
16:18 77.4 °F 46.8 °F 30.15 in NNW 4.7 mph -999.0 mph 34% 0 in
16:34 77.9 °F 47.3 °F 30.14 in WNW 4.7 mph -999.0 mph 34% 0 in
16:49 79.9 °F 46.6 °F 30.14 in NW 4.7 mph -999.0 mph 31% 0 in
17:04 80.4 °F 47.0 °F 30.14 in North 4.2 mph -999.0 mph 31% 0 in
17:19 79.9 °F 45.7 °F 30.14 in West 3.2 mph -999.0 mph 30% 0 in
17:34 80.2 °F 45.1 °F 30.14 in NNW 3.7 mph -999.0 mph 29% 0 in
17:50 77.9 °F 46.5 °F 30.14 in NW 4.2 mph -999.0 mph 33% 0 in
18:05 76.8 °F 46.3 °F 30.14 in WNW 3.7 mph -999.0 mph 34% 0 in
18:20 76.6 °F 46.1 °F 30.14 in NNE 3.7 mph -999.0 mph 34% 0 in
18:36 75.2 °F 46.4 °F 30.14 in NW 3.7 mph -999.0 mph 36% 0 in
18:51 73.8 °F 45.2 °F 30.14 in NW 3.7 mph -999.0 mph 36% 0 in
19:06 71.4 °F 46.5 °F 30.14 in WNW 4.2 mph -999.0 mph 41% 0 in
19:21 68.5 °F 46.3 °F 30.15 in NE 1.7 mph -999.0 mph 45% 0 in
19:36 66.0 °F 46.8 °F 30.15 in SW 1.1 mph -999.0 mph 50% 0 in
19:52 64.0 °F 47.0 °F 30.15 in WNW 2.7 mph -999.0 mph 54% 0 in
20:07 63.1 °F 46.2 °F 30.16 in Calm   -999.0 mph 54% 0 in
20:23 62.2 °F 44.9 °F 30.16 in Calm   -999.0 mph 53% 0 in
20:38 61.7 °F 44.4 °F 30.16 in Calm   -999.0 mph 53% 0 in
20:53 60.3 °F 44.1 °F 30.17 in Calm   -999.0 mph 55% 0 in
21:09 58.8 °F 43.6 °F 30.17 in SSE 1.7 mph -999.0 mph 57% 0 in
21:24 57.6 °F 43.4 °F 30.17 in Calm   -999.0 mph 59% 0 in
21:39 56.1 °F 43.3 °F 30.18 in South 2.2 mph -999.0 mph 62% 0 in
21:54 55.4 °F 42.6 °F 30.18 in South 1.7 mph -999.0 mph 62% 0 in
22:09 54.7 °F 42.8 °F 30.19 in Calm   -999.0 mph 64% 0 in
22:25 54.1 °F 42.6 °F 30.18 in Calm   -999.0 mph 65% 0 in
22:40 53.2 °F 42.1 °F 30.19 in Calm   -999.0 mph 66% 0 in
22:55 52.7 °F 42.1 °F 30.19 in Calm   -999.0 mph 67% 0 in
23:10 52.0 °F 40.6 °F 30.18 in Calm   -999.0 mph 65% 0 in
23:25 51.6 °F 39.4 °F 30.18 in SSE 1.7 mph -999.0 mph 63% 0 in
23:41 50.9 °F 39.6 °F 30.19 in SSE 1.1 mph -999.0 mph 65% 0 in
23:56 50.5 °F 40.0 °F 30.19 in SSE 1.7 mph -999.0 mph 67% 0 in
Big Bear CA Weather